Time;durP1;ratioP1;P1;durP2;ratioP2;P2;SDS_P1;SDS_P2;PMS_P1;PMS_P2;Temp;Humidity;BMP_temperature;BMP_pressure;BME280_temperature;BME280_humidity;BME280_pressure;Samples;Min_cycle;Max_cycle;Signal;HPM_P1;HPM_P2
2023/12/12 00:01:31;;;;;;;;;;;;;;;26.11;40.46;93776.72;5065712;28;8193;-54
2023/12/12 00:04:00;;;;;;;;;;;;;;;26.10;40.70;93780.72;5067387;28;9067;-53
2023/12/12 00:06:32;;;;;;;;;;;;;;;26.11;39.94;93782.22;5063971;28;7188;-54
2023/12/12 00:09:05;;;;;;;;;;;;;;;26.12;40.23;93788.50;5068156;28;7301;-54
2023/12/12 00:11:42;;;;;;;;;;;;;;;26.15;40.34;93781.91;5055765;28;7054;-54
2023/12/12 00:14:11;;;;;;;;;;;;;;;26.09;40.04;93782.03;5064258;28;7053;-54
2023/12/12 00:16:47;;;;;;;;;;;;;;;26.12;40.08;93774.72;5055725;28;7254;-60
2023/12/12 00:19:31;;;;;;;;;;;;;;;26.10;40.78;93775.22;5072012;28;7440;-60
2023/12/12 00:22:01;;;;;;;;;;;;;;;26.10;40.55;93794.50;5042090;28;7234;-59
2023/12/12 00:24:31;;;;;;;;;;;;;;;26.09;40.22;93787.53;5056817;28;7290;-59
2023/12/12 00:27:23;;;;;;;;;;;;;;;26.10;40.78;93799.28;5067853;28;7028;-60
2023/12/12 00:29:51;;;;;;;;;;;;;;;26.08;40.36;93794.31;5053440;28;9007;-60
2023/12/12 00:32:30;;;;;;;;;;;;;;;26.08;40.18;93788.78;5070285;28;7220;-60
2023/12/12 00:35:18;;;;;;;;;;;;;;;26.09;40.78;93786.78;5046841;28;8750;-60
2023/12/12 00:37:47;;;;;;;;;;;;;;;26.10;39.91;93794.50;5048332;28;9169;-60
2023/12/12 00:40:19;;;;;;;;;;;;;;;26.08;40.52;93785.25;5060678;28;9516;-60
2023/12/12 00:42:46;;;;;;;;;;;;;;;26.10;40.71;93791.00;5042653;28;8171;-60
2023/12/12 00:45:24;;;;;;;;;;;;;;;26.10;40.01;93783.50;5063491;28;7323;-60
2023/12/12 00:47:53;;;;;;;;;;;;;;;26.09;40.69;93781.28;5067808;28;8701;-59
2023/12/12 00:50:21;;;;;;;;;;;;;;;26.10;40.27;93775.22;5061679;28;9028;-59
2023/12/12 00:52:50;;;;;;;;;;;;;;;26.08;40.52;93780.53;5062589;28;7040;-59
2023/12/12 00:55:16;;;;;;;;;;;;;;;26.11;40.12;93785.00;5051065;28;9176;-59
2023/12/12 00:57:42;;;;;;;;;;;;;;;26.12;40.04;93783.69;5070427;28;9064;-59
2023/12/12 01:00:17;;;;;;;;;;;;;;;26.10;40.45;93791.75;5059685;28;9205;-59
2023/12/12 01:02:44;;;;;;;;;;;;;;;26.12;39.97;93797.47;5062528;28;7235;-60
2023/12/12 01:05:18;;;;;;;;;;;;;;;26.11;40.29;93793.25;5046136;28;7214;-59
2023/12/12 01:07:51;;;;;;;;;;;;;;;26.11;40.21;93790.50;5049322;28;7126;-60
2023/12/12 01:10:17;;;;;;;;;;;;;;;26.08;40.14;93771.47;5072177;28;9221;-59
2023/12/12 01:13:01;;;;;;;;;;;;;;;26.12;40.18;93769.19;5067386;28;7234;-60
2023/12/12 01:15:45;;;;;;;;;;;;;;;26.10;40.80;93780.72;5059743;28;7073;-59
2023/12/12 01:18:18;;;;;;;;;;;;;;;26.11;39.87;93776.72;5046013;28;7508;-60
2023/12/12 01:21:07;;;;;;;;;;;;;;;26.13;39.94;93779.69;5061965;28;7619;-60
2023/12/12 01:23:47;;;;;;;;;;;;;;;26.14;40.34;93783.91;5049331;28;7109;-60
2023/12/12 01:26:23;;;;;;;;;;;;;;;26.12;40.42;93780.22;5074746;28;8765;-54
2023/12/12 01:28:50;;;;;;;;;;;;;;;26.11;40.64;93773.22;5051737;28;7425;-54
2023/12/12 01:31:24;;;;;;;;;;;;;;;26.08;40.12;93769.50;5068344;28;7459;-54
2023/12/12 01:33:56;;;;;;;;;;;;;;;26.09;40.23;93773.75;5046984;28;7251;-54
2023/12/12 01:36:22;;;;;;;;;;;;;;;26.12;40.12;93782.97;5048889;28;9084;-55
2023/12/12 01:38:54;;;;;;;;;;;;;;;26.09;40.22;93776.50;5056349;28;9064;-55
2023/12/12 01:41:28;;;;;;;;;;;;;;;26.08;40.49;93780.53;5036685;28;9091;-54
2023/12/12 01:44:31;;;;;;;;;;;;;;;26.12;40.86;93778.19;5044446;28;7273;-55
2023/12/12 01:47:10;;;;;;;;;;;;;;;26.10;40.63;93768.97;4963229;28;9217;-55
2023/12/12 01:49:38;;;;;;;;;;;;;;;26.10;40.29;93771.72;4961726;28;8788;-55
2023/12/12 01:52:22;;;;;;;;;;;;;;;26.10;40.66;93757.94;4979092;28;7413;-55
2023/12/12 01:54:52;;;;;;;;;;;;;;;26.08;39.99;93760.44;4983242;28;7256;-55
2023/12/12 01:57:33;;;;;;;;;;;;;;;26.05;40.08;93762.28;4975667;28;7278;-55
2023/12/12 01:59:59;;;;;;;;;;;;;;;26.10;40.23;93763.44;4967127;28;8092;-55
2023/12/12 02:02:27;;;;;;;;;;;;;;;26.08;40.75;93772.25;4958980;28;7790;-55
2023/12/12 02:05:02;;;;;;;;;;;;;;;26.07;40.25;93781.78;4954776;28;6990;-55
2023/12/12 02:07:41;;;;;;;;;;;;;;;26.07;40.53;93768.00;4977943;28;6879;-55
2023/12/12 02:10:24;;;;;;;;;;;;;;;26.06;40.66;93768.50;4978902;28;7066;-55
2023/12/12 02:13:04;;;;;;;;;;;;;;;26.02;40.68;93768.84;4980675;28;7228;-55
2023/12/12 02:15:41;;;;;;;;;;;;;;;26.06;40.47;93757.47;4971384;28;7350;-55
2023/12/12 02:18:08;;;;;;;;;;;;;;;26.05;40.00;93756.75;4977907;28;7110;-55
2023/12/12 02:20:37;;;;;;;;;;;;;;;26.03;40.22;93736.50;4990012;28;7252;-55
2023/12/12 02:23:03;;;;;;;;;;;;;;;26.05;40.39;93742.25;5069818;28;9078;-55
2023/12/12 02:25:37;;;;;;;;;;;;;;;26.05;40.25;93748.50;5057828;28;9129;-55
2023/12/12 02:28:12;;;;;;;;;;;;;;;26.08;40.25;93754.94;5049621;28;7012;-55
2023/12/12 02:30:42;;;;;;;;;;;;;;;26.08;40.61;93750.22;5044259;28;9467;-55
2023/12/12 02:33:08;;;;;;;;;;;;;;;26.08;40.31;93730.13;5065620;28;7005;-55
2023/12/12 02:35:40;;;;;;;;;;;;;;;26.07;40.69;93721.16;5037212;28;7210;-55
2023/12/12 02:38:16;;;;;;;;;;;;;;;26.06;40.01;93741.69;5054990;28;7168;-55
2023/12/12 02:40:47;;;;;;;;;;;;;;;26.06;40.33;93741.69;5048585;28;9393;-55
2023/12/12 02:43:13;;;;;;;;;;;;;;;26.06;40.83;93730.69;5044457;28;9050;-55
2023/12/12 02:45:42;;;;;;;;;;;;;;;26.04;40.66;93711.19;5054221;28;6991;-63
2023/12/12 02:48:22;;;;;;;;;;;;;;;26.06;40.33;93702.38;5065115;28;7637;-63
2023/12/12 02:50:50;;;;;;;;;;;;;;;26.02;40.20;93696.44;5050619;28;7004;-63
2023/12/12 02:53:18;;;;;;;;;;;;;;;26.04;40.32;93693.88;5052259;28;9086;-62
2023/12/12 02:55:45;;;;;;;;;;;;;;;26.04;40.08;93689.13;5062279;28;7232;-63
2023/12/12 02:58:44;;;;;;;;;;;;;;;26.04;40.09;93702.91;5042770;28;7553;-63
2023/12/12 03:01:22;;;;;;;;;;;;;;;26.03;39.86;93687.63;5063133;28;7218;-63
2023/12/12 03:03:53;;;;;;;;;;;;;;;25.98;40.14;93691.25;5067287;28;9115;-63
2023/12/12 03:06:19;;;;;;;;;;;;;;;26.01;40.14;93689.47;5049054;28;7232;-63
2023/12/12 03:09:06;;;;;;;;;;;;;;;26.04;40.23;93699.41;5067049;28;7170;-62
2023/12/12 03:11:39;;;;;;;;;;;;;;;26.03;40.10;93686.91;5058842;28;8811;-63
2023/12/12 03:14:07;;;;;;;;;;;;;;;25.99;40.59;93678.22;5045525;28;8133;-63
2023/12/12 03:16:38;;;;;;;;;;;;;;;26.02;39.74;93699.94;5057663;28;7660;-63
2023/12/12 03:19:09;;;;;;;;;;;;;;;26.03;39.56;93695.19;5038423;28;7525;-62
2023/12/12 03:21:35;;;;;;;;;;;;;;;26.02;40.48;93702.69;5053114;28;7295;-63
2023/12/12 03:24:08;;;;;;;;;;;;;;;25.99;40.69;93697.50;5069677;28;7516;-63
2023/12/12 03:26:36;;;;;;;;;;;;;;;26.00;40.05;93694.22;5063689;28;7703;-63
2023/12/12 03:29:13;;;;;;;;;;;;;;;25.99;40.37;93675.47;5063082;28;6976;-63
2023/12/12 03:31:43;;;;;;;;;;;;;;;26.03;40.34;93681.41;5054369;28;7244;-63
2023/12/12 03:34:14;;;;;;;;;;;;;;;26.00;40.26;93685.19;5069146;28;6990;-63
2023/12/12 03:36:53;;;;;;;;;;;;;;;25.99;40.37;93676.19;5044112;28;7127;-63
2023/12/12 03:39:25;;;;;;;;;;;;;;;25.99;40.02;93683.72;5037021;28;7171;-62
2023/12/12 03:41:54;;;;;;;;;;;;;;;26.00;40.66;93682.44;5044966;28;7822;-63
2023/12/12 03:44:40;;;;;;;;;;;;;;;26.00;39.84;93680.44;5052267;28;7058;-63
2023/12/12 03:47:13;;;;;;;;;;;;;;;26.00;40.49;93674.19;5058684;28;9391;-63
2023/12/12 03:49:48;;;;;;;;;;;;;;;25.97;40.03;93670.47;5054364;28;7154;-63
2023/12/12 03:52:19;;;;;;;;;;;;;;;26.00;40.83;93663.91;5067438;28;9099;-63
2023/12/12 03:55:31;;;;;;;;;;;;;;;26.03;40.34;93662.84;5081363;28;8604;-63
2023/12/12 03:58:11;;;;;;;;;;;;;;;25.98;40.55;93669.22;5042245;28;7696;-61
2023/12/12 04:00:44;;;;;;;;;;;;;;;25.98;40.22;93663.69;5048659;28;7282;-60
2023/12/12 04:03:26;;;;;;;;;;;;;;;25.99;40.14;93676.19;5057385;28;8894;-60
2023/12/12 04:06:01;;;;;;;;;;;;;;;25.98;40.22;93674.72;5068111;28;9016;-60
2023/12/12 04:08:31;;;;;;;;;;;;;;;25.96;40.20;93660.72;5048825;28;8925;-61
2023/12/12 04:11:02;;;;;;;;;;;;;;;25.98;40.16;93669.22;5055516;28;7279;-60
2023/12/12 04:14:00;;;;;;;;;;;;;;;26.00;40.59;93671.44;5044797;28;7241;-61
2023/12/12 04:16:27;;;;;;;;;;;;;;;25.99;39.86;93670.69;4996703;28;9061;-60
2023/12/12 04:19:03;;;;;;;;;;;;;;;26.00;40.06;93668.66;4984923;28;7337;-60
2023/12/12 04:21:39;;;;;;;;;;;;;;;25.98;40.16;93655.44;5002550;28;7242;-61
2023/12/12 04:24:15;;;;;;;;;;;;;;;25.98;39.75;93649.19;5006597;28;9349;-61
2023/12/12 04:26:43;;;;;;;;;;;;;;;25.99;39.88;93658.94;5009309;28;7449;-60
2023/12/12 04:29:19;;;;;;;;;;;;;;;25.94;39.86;93638.47;5012974;28;7140;-61
2023/12/12 04:31:49;;;;;;;;;;;;;;;25.93;40.23;93630.72;4992728;28;8727;-61
2023/12/12 04:34:30;;;;;;;;;;;;;;;25.97;40.27;93634.66;4986946;28;7177;-61
2023/12/12 04:37:12;;;;;;;;;;;;;;;25.95;40.57;93626.19;4990171;28;7039;-61
2023/12/12 04:39:38;;;;;;;;;;;;;;;25.92;40.23;93623.75;4991115;28;7188;-60
2023/12/12 04:42:15;;;;;;;;;;;;;;;25.93;39.76;93620.47;4987602;28;7317;-60
2023/12/12 04:45:15;;;;;;;;;;;;;;;25.96;40.06;93622.16;4998838;28;7335;-60
2023/12/12 04:48:03;;;;;;;;;;;;;;;25.93;40.01;93617.69;4994288;28;7260;-60
2023/12/12 04:50:37;;;;;;;;;;;;;;;25.95;40.62;93619.91;4995760;28;9399;-60
2023/12/12 04:53:13;;;;;;;;;;;;;;;25.93;40.41;93633.47;5053087;28;7539;-60
2023/12/12 04:55:58;;;;;;;;;;;;;;;25.93;40.09;93633.47;5050681;28;7303;-60
2023/12/12 04:58:33;;;;;;;;;;;;;;;25.91;40.73;93631.28;5078981;28;7051;-60
2023/12/12 05:01:02;;;;;;;;;;;;;;;25.93;40.27;93637.00;5049026;28;7307;-61
2023/12/12 05:03:53;;;;;;;;;;;;;;;25.93;40.28;93630.72;5052903;28;7231;-60
2023/12/12 05:06:28;;;;;;;;;;;;;;;25.89;40.44;93625.56;5053666;28;8424;-65
2023/12/12 05:09:03;;;;;;;;;;;;;;;25.88;39.89;93615.78;5049547;28;8032;-65
2023/12/12 05:11:29;;;;;;;;;;;;;;;25.90;40.25;93635.28;5045681;28;7005;-65
2023/12/12 05:14:14;;;;;;;;;;;;;;;25.87;40.04;93627.34;5062801;28;7183;-65
2023/12/12 05:17:15;;;;;;;;;;;;;;;25.93;40.41;93630.72;5043502;28;7356;-65
2023/12/12 05:19:44;;;;;;;;;;;;;;;25.94;39.98;93632.97;5046364;28;7343;-65
2023/12/12 05:22:12;;;;;;;;;;;;;;;25.97;40.06;93631.16;5027351;28;8050;-65
2023/12/12 05:24:39;;;;;;;;;;;;;;;25.93;40.33;93625.97;5040404;28;7444;-65
2023/12/12 05:27:21;;;;;;;;;;;;;;;25.97;40.41;93626.38;5029538;28;7077;-66
2023/12/12 05:30:17;;;;;;;;;;;;;;;26.00;40.63;93624.59;5017064;28;7219;-66
2023/12/12 05:32:44;;;;;;;;;;;;;;;25.99;40.07;93621.06;4945351;28;7227;-65
2023/12/12 05:35:15;;;;;;;;;;;;;;;25.99;39.59;93615.56;4946653;28;7046;-66
2023/12/12 05:37:50;;;;;;;;;;;;;;;26.00;39.94;93613.56;4928774;28;7053;-66
2023/12/12 05:40:28;;;;;;;;;;;;;;;26.01;40.56;93618.53;4932231;28;7071;-66
2023/12/12 05:43:09;;;;;;;;;;;;;;;26.04;40.54;93617.47;4933768;28;7450;-67
2023/12/12 05:46:09;;;;;;;;;;;;;;;26.04;40.21;93609.22;4936383;28;7173;-67
2023/12/12 05:48:36;;;;;;;;;;;;;;;26.04;40.46;93609.22;4950732;28;7089;-67
2023/12/12 05:51:12;;;;;;;;;;;;;;;26.02;40.44;93606.25;4934586;28;7059;-66
2023/12/12 05:53:52;;;;;;;;;;;;;;;25.99;40.52;93604.53;4950178;28;7287;-66
2023/12/12 05:56:27;;;;;;;;;;;;;;;26.01;40.14;93604.75;4967194;28;9028;-66
2023/12/12 05:59:07;;;;;;;;;;;;;;;26.02;40.65;93617.28;4965814;28;8799;-67
2023/12/12 06:01:36;;;;;;;;;;;;;;;26.03;40.05;93613.22;4956754;28;7211;-66
2023/12/12 06:04:13;;;;;;;;;;;;;;;26.02;40.41;93609.00;4966617;28;7271;-66
2023/12/12 06:06:46;;;;;;;;;;;;;;;26.00;40.14;93617.06;4970371;28;7496;-67
2023/12/12 06:09:16;;;;;;;;;;;;;;;25.97;39.90;93611.84;5017210;28;7349;-66
2023/12/12 06:11:44;;;;;;;;;;;;;;;25.97;40.14;93606.34;5060256;28;7228;-67
2023/12/12 06:14:13;;;;;;;;;;;;;;;25.96;40.08;93611.13;5048566;28;7254;-67
2023/12/12 06:16:41;;;;;;;;;;;;;;;25.99;40.36;93593.53;5057209;28;7588;-62
2023/12/12 06:19:07;;;;;;;;;;;;;;;25.98;40.39;93592.06;5048654;28;9083;-62
2023/12/12 06:21:36;;;;;;;;;;;;;;;25.98;40.20;93600.31;5047041;28;6964;-62
2023/12/12 06:24:04;;;;;;;;;;;;;;;25.96;41.12;93600.13;5060183;28;7393;-61
2023/12/12 06:26:31;;;;;;;;;;;;;;;25.97;40.81;93587.81;5051440;28;7280;-62
2023/12/12 06:29:25;;;;;;;;;;;;;;;25.99;40.39;93599.03;5061448;28;6997;-62
2023/12/12 06:31:51;;;;;;;;;;;;;;;25.98;40.75;93592.06;4995938;28;9289;-62
2023/12/12 06:34:28;;;;;;;;;;;;;;;26.00;41.04;93599.78;5002050;28;8806;-62
2023/12/12 06:36:58;;;;;;;;;;;;;;;26.00;40.47;93599.78;4990097;28;7230;-62
2023/12/12 06:39:34;;;;;;;;;;;;;;;26.03;40.31;93593.94;4999773;28;7410;-62
2023/12/12 06:42:14;;;;;;;;;;;;;;;26.01;40.29;93602.00;5008139;28;7489;-62
2023/12/12 06:44:55;;;;;;;;;;;;;;;26.02;40.27;93605.50;4999984;28;8948;-62
2023/12/12 06:47:22;;;;;;;;;;;;;;;26.04;40.26;93614.72;4995342;28;7118;-62
2023/12/12 06:49:49;;;;;;;;;;;;;;;26.04;40.26;93611.97;5014762;28;7207;-62
2023/12/12 06:52:16;;;;;;;;;;;;;;;26.03;40.37;93610.47;5002603;28;7270;-62
2023/12/12 06:54:44;;;;;;;;;;;;;;;26.03;40.89;93609.75;4977509;28;7889;-62
2023/12/12 06:57:43;;;;;;;;;;;;;;;26.04;40.12;93614.72;4997911;28;9167;-62
2023/12/12 07:00:26;;;;;;;;;;;;;;;26.05;40.55;93621.72;4933202;29;7213;-62
2023/12/12 07:03:10;;;;;;;;;;;;;;;26.03;40.48;93624.25;4917538;29;7017;-62
2023/12/12 07:05:40;;;;;;;;;;;;;;;26.00;40.68;93624.59;4921225;29;7252;-62
2023/12/12 07:08:08;;;;;;;;;;;;;;;25.98;40.16;93627.88;4924169;28;8738;-62
2023/12/12 07:11:21;;;;;;;;;;;;;;;25.99;40.84;93615.56;4970514;28;8725;-62
2023/12/12 07:13:52;;;;;;;;;;;;;;;25.96;40.71;93594.59;4932380;29;6989;-62
2023/12/12 07:16:20;;;;;;;;;;;;;;;25.97;40.45;93601.59;4919566;29;7089;-62
2023/12/12 07:18:59;;;;;;;;;;;;;;;25.97;40.59;93600.84;4918241;29;9042;-62
2023/12/12 07:21:53;;;;;;;;;;;;;;;25.97;40.84;93585.06;4927373;29;8489;-63
2023/12/12 07:24:19;;;;;;;;;;;;;;;25.96;40.72;93583.59;4928651;29;7024;-62
2023/12/12 07:26:45;;;;;;;;;;;;;;;25.93;40.44;93565.34;4909085;29;6933;-59
2023/12/12 07:29:33;;;;;;;;;;;;;;;25.95;40.48;93562.06;4920418;29;7237;-59
2023/12/12 07:32:04;;;;;;;;;;;;;;;25.95;40.31;93573.06;4911419;29;7289;-59
2023/12/12 07:34:35;;;;;;;;;;;;;;;25.96;40.79;93574.56;4927942;28;7101;-59
2023/12/12 07:37:04;;;;;;;;;;;;;;;25.94;40.39;93585.38;4991821;28;7475;-59
2023/12/12 07:39:30;;;;;;;;;;;;;;;25.95;40.74;93575.84;4980394;28;7306;-59
2023/12/12 07:42:35;;;;;;;;;;;;;;;25.96;40.78;93586.34;4977171;28;7103;-59
2023/12/12 07:45:20;;;;;;;;;;;;;;;25.96;40.75;93578.06;4941909;28;9071;-59
2023/12/12 07:48:20;;;;;;;;;;;;;;;25.96;40.70;93600.13;4929197;29;7887;-59
2023/12/12 07:51:03;;;;;;;;;;;;;;;25.95;40.10;93615.16;4936091;28;9128;-59
2023/12/12 07:53:40;;;;;;;;;;;;;;;25.94;40.47;93634.97;4948440;28;6988;-59
2023/12/12 07:56:14;;;;;;;;;;;;;;;25.96;40.21;93632.44;4936976;28;6979;-59
2023/12/12 07:58:42;;;;;;;;;;;;;;;25.93;40.99;93633.47;4950765;28;7266;-59
2023/12/12 08:01:27;;;;;;;;;;;;;;;25.94;40.61;93634.97;4933544;28;7153;-59
2023/12/12 08:04:06;;;;;;;;;;;;;;;25.94;40.21;93632.22;4956895;28;9050;-59
2023/12/12 08:07:22;;;;;;;;;;;;;;;25.95;40.66;93628.19;4936659;28;9083;-59
2023/12/12 08:10:00;;;;;;;;;;;;;;;25.94;40.29;93624.72;4900346;29;7252;-59
2023/12/12 08:12:38;;;;;;;;;;;;;;;25.96;40.55;93635.94;4908706;29;9265;-59
2023/12/12 08:15:08;;;;;;;;;;;;;;;25.97;40.75;93639.41;4913230;29;7328;-59
2023/12/12 08:17:38;;;;;;;;;;;;;;;25.97;40.65;93633.91;4901060;29;9399;-59
2023/12/12 08:20:25;;;;;;;;;;;;;;;25.96;40.78;93626.94;4949000;28;7197;-59
2023/12/12 08:22:53;;;;;;;;;;;;;;;25.95;40.17;93617.91;4972134;28;7204;-59
2023/12/12 08:25:51;;;;;;;;;;;;;;;25.96;41.00;93624.16;4963675;28;7203;-59
2023/12/12 08:28:18;;;;;;;;;;;;;;;25.94;40.18;93621.94;4949657;28;8743;-59
2023/12/12 08:30:48;;;;;;;;;;;;;;;25.93;40.57;93625.97;4969543;28;7068;-59
2023/12/12 08:33:53;;;;;;;;;;;;;;;25.96;41.03;93626.94;4955787;28;9045;-59
2023/12/12 08:36:19;;;;;;;;;;;;;;;25.95;40.71;93622.66;4967971;28;7238;-54
2023/12/12 08:38:50;;;;;;;;;;;;;;;25.99;41.13;93615.56;4962561;28;7384;-54
2023/12/12 08:41:31;;;;;;;;;;;;;;;26.00;40.97;93610.81;4950767;28;9174;-54
2023/12/12 08:44:00;;;;;;;;;;;;;;;26.01;40.74;93610.25;4963674;28;7454;-53
2023/12/12 08:46:43;;;;;;;;;;;;;;;25.96;40.68;93600.13;4980630;28;7262;-54
2023/12/12 08:49:18;;;;;;;;;;;;;;;25.94;41.17;93588.88;4988297;28;7551;-55
2023/12/12 08:51:59;;;;;;;;;;;;;;;25.95;41.01;93587.59;4974477;28;9025;-54
2023/12/12 08:54:56;;;;;;;;;;;;;;;25.93;41.49;93584.63;4982362;28;7126;-54
2023/12/12 08:57:36;;;;;;;;;;;;;;;25.90;40.24;93580.19;4911999;29;9196;-54
2023/12/12 09:00:06;;;;;;;;;;;;;;;25.92;40.40;93574.91;4927429;29;9076;-54
2023/12/12 09:02:45;;;;;;;;;;;;;;;25.93;39.79;93570.88;4915929;28;7305;-55
2023/12/12 09:05:13;;;;;;;;;;;;;;;25.94;40.00;93563.34;4966711;28;7232;-54
2023/12/12 09:07:52;;;;;;;;;;;;;;;25.95;39.74;93565.56;4973831;28;9111;-54
2023/12/12 09:10:19;;;;;;;;;;;;;;;25.95;39.68;93556.53;4988590;28;7024;-55
2023/12/12 09:12:54;;;;;;;;;;;;;;;25.97;39.38;93557.50;4973523;28;7037;-55
2023/12/12 09:15:31;;;;;;;;;;;;;;;25.97;39.49;93557.50;4991325;28;7320;-54
2023/12/12 09:18:07;;;;;;;;;;;;;;;25.97;39.04;93551.25;4982575;28;9101;-54
2023/12/12 09:20:37;;;;;;;;;;;;;;;25.94;39.29;93546.81;4986000;28;6990;-55
2023/12/12 09:23:03;;;;;;;;;;;;;;;25.92;38.90;93541.84;4988871;28;7221;-55
2023/12/12 09:25:45;;;;;;;;;;;;;;;25.90;39.57;93541.59;4987855;28;7261;-54
2023/12/12 09:28:36;;;;;;;;;;;;;;;25.92;39.51;93549.38;4986258;28;6995;-54
2023/12/12 09:31:02;;;;;;;;;;;;;;;25.92;38.66;93547.34;4990715;28;8768;-54
2023/12/12 09:33:48;;;;;;;;;;;;;;;25.94;38.70;93555.06;5007355;28;7009;-54
2023/12/12 09:36:26;;;;;;;;;;;;;;;25.93;38.93;93546.06;5057194;28;8629;-54
2023/12/12 09:39:06;;;;;;;;;;;;;;;25.93;38.74;93545.31;5060645;28;7240;-54
2023/12/12 09:42:08;;;;;;;;;;;;;;;25.94;39.13;93533.03;5064968;28;7311;-54
2023/12/12 09:44:38;;;;;;;;;;;;;;;25.94;38.51;93530.28;5011242;28;7204;-54
2023/12/12 09:47:07;;;;;;;;;;;;;;;25.92;38.35;93524.56;5004916;28;7589;-60
2023/12/12 09:49:35;;;;;;;;;;;;;;;25.92;38.66;93506.03;5005364;28;9273;-60
2023/12/12 09:52:02;;;;;;;;;;;;;;;25.94;38.57;93517.25;4993500;28;7049;-60
2023/12/12 09:54:43;;;;;;;;;;;;;;;25.95;38.91;93518.72;5005648;28;7196;-60
2023/12/12 09:57:11;;;;;;;;;;;;;;;25.95;37.99;93507.69;4991241;28;9090;-60
2023/12/12 09:59:41;;;;;;;;;;;;;;;25.94;38.63;93497.97;4987236;28;7346;-60
2023/12/12 10:02:22;;;;;;;;;;;;;;;25.94;38.76;93492.47;5009813;28;7149;-60
2023/12/12 10:05:01;;;;;;;;;;;;;;;25.93;39.37;93488.22;5007169;28;7242;-60
2023/12/12 10:07:30;;;;;;;;;;;;;;;25.95;39.12;93488.41;4993973;28;7529;-61
2023/12/12 10:09:56;;;;;;;;;;;;;;;25.92;38.97;93469.47;5010847;28;7350;-60
2023/12/12 10:12:23;;;;;;;;;;;;;;;25.96;39.12;93462.34;5009012;28;7037;-60
2023/12/12 10:14:49;;;;;;;;;;;;;;;25.94;39.38;93459.41;4991286;28;7459;-60
2023/12/12 10:17:56;;;;;;;;;;;;;;;25.97;39.18;93457.56;5011515;28;7088;-60
2023/12/12 10:20:30;;;;;;;;;;;;;;;25.96;39.37;93467.88;4974943;28;7172;-61
2023/12/12 10:23:01;;;;;;;;;;;;;;;25.97;39.08;93458.31;4974436;28;7315;-60
2023/12/12 10:25:36;;;;;;;;;;;;;;;25.96;38.66;93461.59;5004715;28;9197;-60
2023/12/12 10:28:03;;;;;;;;;;;;;;;25.96;39.33;93461.59;4996201;28;9111;-61
2023/12/12 10:30:31;;;;;;;;;;;;;;;25.97;38.89;93463.81;4989708;28;7401;-60
2023/12/12 10:33:15;;;;;;;;;;;;;;;25.98;39.43;93457.03;4984533;28;9245;-60
2023/12/12 10:35:45;;;;;;;;;;;;;;;25.98;38.91;93462.56;4991390;28;7213;-61
2023/12/12 10:38:23;;;;;;;;;;;;;;;25.95;39.26;93455.34;4976695;28;7310;-60
2023/12/12 10:41:40;;;;;;;;;;;;;;;25.98;39.59;93465.31;4984023;28;7221;-61
2023/12/12 10:44:17;;;;;;;;;;;;;;;25.99;39.31;93460.53;4905306;29;6990;-61
2023/12/12 10:46:54;;;;;;;;;;;;;;;25.97;39.44;93463.81;4911316;29;6999;-60
2023/12/12 10:49:31;;;;;;;;;;;;;;;26.00;39.50;93468.25;4905898;29;9167;-61
2023/12/12 10:52:05;;;;;;;;;;;;;;;25.99;39.49;93464.03;4913769;29;7232;-61
2023/12/12 10:54:36;;;;;;;;;;;;;;;25.99;38.96;93455.75;4940592;28;7308;-61
2023/12/12 10:57:14;;;;;;;;;;;;;;;25.98;39.40;93468.06;4929705;29;7054;-54
2023/12/12 10:59:43;;;;;;;;;;;;;;;26.00;39.01;93468.25;4951292;28;9988;-54
2023/12/12 11:02:30;;;;;;;;;;;;;;;26.01;39.85;93466.97;4942228;28;7483;-55
2023/12/12 11:04:56;;;;;;;;;;;;;;;26.00;39.39;93473.78;4931816;29;9660;-54
2023/12/12 11:07:22;;;;;;;;;;;;;;;26.01;38.95;93466.97;4954523;28;7242;-54
2023/12/12 11:09:52;;;;;;;;;;;;;;;26.01;39.18;93466.97;4938435;28;6999;-53
2023/12/12 11:12:21;;;;;;;;;;;;;;;26.02;38.97;93451.94;4937594;28;7167;-55
2023/12/12 11:14:56;;;;;;;;;;;;;;;26.00;39.15;93443.47;4939786;28;7250;-54
2023/12/12 11:17:25;;;;;;;;;;;;;;;25.97;39.19;93447.28;4945308;28;7089;-54
2023/12/12 11:19:56;;;;;;;;;;;;;;;26.00;40.35;93451.75;5004532;28;7451;-54
2023/12/12 11:22:39;;;;;;;;;;;;;;;26.01;39.42;93442.19;5068237;28;8215;-54
2023/12/12 11:25:21;;;;;;;;;;;;;;;26.00;39.11;93443.47;5057928;28;7219;-54
2023/12/12 11:27:52;;;;;;;;;;;;;;;26.01;39.32;93433.91;5082461;28;7670;-54
2023/12/12 11:30:39;;;;;;;;;;;;;;;26.00;38.85;93426.19;5075461;28;7180;-54
2023/12/12 11:33:14;;;;;;;;;;;;;;;25.98;39.71;93426.00;5071899;28;6949;-54
2023/12/12 11:35:53;;;;;;;;;;;;;;;26.01;39.40;93435.94;5062260;28;7238;-54
2023/12/12 11:38:33;;;;;;;;;;;;;;;25.99;39.75;93417.19;5058089;28;9130;-54
2023/12/12 11:41:19;;;;;;;;;;;;;;;26.00;39.70;93415.16;5074277;28;9207;-54
2023/12/12 11:43:46;;;;;;;;;;;;;;;25.95;39.76;93405.00;5053632;28;7023;-54
2023/12/12 11:46:20;;;;;;;;;;;;;;;25.98;39.91;93412.97;5056745;28;9231;-54
2023/12/12 11:48:53;;;;;;;;;;;;;;;25.97;40.46;93403.19;5073401;28;8769;-54
2023/12/12 11:51:35;;;;;;;;;;;;;;;26.01;40.33;93400.13;5067029;28;7052;-54
2023/12/12 11:54:21;;;;;;;;;;;;;;;25.99;39.62;93400.66;5070254;28;6992;-54
2023/12/12 11:57:01;;;;;;;;;;;;;;;25.97;39.69;93392.19;5057675;28;7246;-54
2023/12/12 11:59:30;;;;;;;;;;;;;;;25.97;39.74;93389.44;5060077;28;7421;-55
2023/12/12 12:02:04;;;;;;;;;;;;;;;25.97;39.89;93383.16;5070504;28;7116;-55
2023/12/12 12:04:51;;;;;;;;;;;;;;;25.98;39.90;93384.66;5052327;28;7288;-54
2023/12/12 12:07:20;;;;;;;;;;;;;;;26.00;40.53;93391.13;5051042;28;7140;-60
2023/12/12 12:09:56;;;;;;;;;;;;;;;26.01;39.90;93387.06;5047278;28;9083;-60
2023/12/12 12:12:55;;;;;;;;;;;;;;;26.04;39.76;93386.00;5062586;28;7176;-61
2023/12/12 12:15:27;;;;;;;;;;;;;;;26.03;39.76;93392.78;5052821;28;8824;-60
2023/12/12 12:18:00;;;;;;;;;;;;;;;26.02;40.18;93388.56;5054810;28;9000;-60
2023/12/12 12:20:26;;;;;;;;;;;;;;;26.04;39.87;93377.75;5057763;28;8792;-61
2023/12/12 12:22:52;;;;;;;;;;;;;;;26.03;39.47;93373.50;5071097;28;9121;-60
2023/12/12 12:25:23;;;;;;;;;;;;;;;26.03;40.12;93362.47;5052441;28;8753;-60
2023/12/12 12:27:53;;;;;;;;;;;;;;;26.04;39.42;93354.94;5066817;28;7332;-60
2023/12/12 12:30:28;;;;;;;;;;;;;;;26.01;40.09;93351.25;5074029;28;7477;-60
2023/12/12 12:33:52;;;;;;;;;;;;;;;26.01;39.66;93351.25;5053840;28;9213;-61
2023/12/12 12:37:03;;;;;;;;;;;;;;;26.02;40.29;93344.47;5018024;28;8794;-60
2023/12/12 12:39:56;;;;;;;;;;;;;;;26.04;40.26;93330.16;4961996;28;8829;-60
2023/12/12 12:42:48;;;;;;;;;;;;;;;26.02;39.93;93322.44;4956115;28;9077;-61
2023/12/12 12:45:30;;;;;;;;;;;;;;;26.01;39.63;93318.19;4949051;28;7234;-61
2023/12/12 12:47:56;;;;;;;;;;;;;;;26.02;39.51;93316.16;4955121;28;9079;-60
2023/12/12 12:51:11;;;;;;;;;;;;;;;26.02;39.44;93314.16;4954410;28;7246;-60
2023/12/12 12:53:49;;;;;;;;;;;;;;;26.02;39.96;93305.91;4921565;29;7385;-60
2023/12/12 12:56:23;;;;;;;;;;;;;;;26.00;39.92;93291.19;4916309;29;9178;-60
2023/12/12 12:58:49;;;;;;;;;;;;;;;26.00;40.38;93280.91;4915497;29;7002;-61
2023/12/12 13:01:19;;;;;;;;;;;;;;;26.01;39.71;93282.38;4913967;29;7038;-61
2023/12/12 13:03:47;;;;;;;;;;;;;;;26.02;40.25;93277.59;4907516;29;7367;-61
2023/12/12 13:06:24;;;;;;;;;;;;;;;26.03;39.99;93277.03;4921152;29;7164;-60
2023/12/12 13:09:20;;;;;;;;;;;;;;;26.04;40.29;93275.03;4893794;29;9422;-60
2023/12/12 13:11:46;;;;;;;;;;;;;;;26.01;40.14;93276.84;4841498;29;7111;-61
2023/12/12 13:14:27;;;;;;;;;;;;;;;26.02;39.78;93261.06;4856581;29;8733;-60
2023/12/12 13:16:54;;;;;;;;;;;;;;;26.02;39.94;93245.28;4879009;29;7282;-60
2023/12/12 13:19:27;;;;;;;;;;;;;;;26.00;40.70;93239.56;4898181;29;9249;-60
2023/12/12 13:22:03;;;;;;;;;;;;;;;25.99;40.38;93213.28;4898400;29;8738;-60
2023/12/12 13:24:30;;;;;;;;;;;;;;;26.01;40.05;93215.53;4892097;29;9030;-60
2023/12/12 13:26:57;;;;;;;;;;;;;;;26.04;39.77;93242.72;4912885;29;9194;-60
2023/12/12 13:29:28;;;;;;;;;;;;;;;26.07;40.46;93222.34;4898989;28;7671;-61
2023/12/12 13:31:57;;;;;;;;;;;;;;;26.05;40.44;93222.16;4985319;28;7451;-61
2023/12/12 13:34:26;;;;;;;;;;;;;;;26.00;40.14;93222.28;4975193;28;9052;-60
2023/12/12 13:36:53;;;;;;;;;;;;;;;26.07;40.56;93207.84;4965653;28;9463;-59
2023/12/12 13:39:18;;;;;;;;;;;;;;;26.21;40.39;93222.28;4971763;28;9100;-60
2023/12/12 13:41:44;;;;;;;;;;;;;;;26.32;40.15;93217.19;4989115;28;7255;-61
2023/12/12 13:44:12;;;;;;;;;;;;;;;26.40;40.09;93236.53;4970376;28;7311;-61